sensor_id;sensor_type;location;lat;lon;timestamp;P1;durP1;ratioP1;P2;durP2;ratioP2
14001;SDS011;7076;51.280;12.584;2023-12-22T00:00:01;10.33;;;1.77;;
14001;SDS011;7076;51.280;12.584;2023-12-22T00:05:05;5.03;;;1.97;;
14001;SDS011;7076;51.280;12.584;2023-12-22T00:10:10;7.77;;;1.40;;
14001;SDS011;7076;51.280;12.584;2023-12-22T00:15:12;7.03;;;1.83;;
14001;SDS011;7076;51.280;12.584;2023-12-22T00:20:15;10.20;;;1.87;;
14001;SDS011;7076;51.280;12.584;2023-12-22T00:25:19;8.27;;;2.03;;
14001;SDS011;7076;51.280;12.584;2023-12-22T00:30:22;8.77;;;1.90;;
14001;SDS011;7076;51.280;12.584;2023-12-22T00:35:25;8.07;;;1.77;;
14001;SDS011;7076;51.280;12.584;2023-12-22T00:40:29;8.63;;;1.30;;
14001;SDS011;7076;51.280;12.584;2023-12-22T00:45:32;8.37;;;1.40;;
14001;SDS011;7076;51.280;12.584;2023-12-22T00:50:34;8.53;;;1.83;;
14001;SDS011;7076;51.280;12.584;2023-12-22T00:55:38;8.90;;;1.50;;
14001;SDS011;7076;51.280;12.584;2023-12-22T01:00:41;10.27;;;1.80;;
14001;SDS011;7076;51.280;12.584;2023-12-22T01:05:43;8.47;;;1.30;;
14001;SDS011;7076;51.280;12.584;2023-12-22T01:10:48;9.90;;;2.00;;
14001;SDS011;7076;51.280;12.584;2023-12-22T01:15:50;7.87;;;1.90;;
14001;SDS011;7076;51.280;12.584;2023-12-22T01:20:53;7.93;;;1.57;;
14001;SDS011;7076;51.280;12.584;2023-12-22T01:25:57;11.07;;;2.10;;
14001;SDS011;7076;51.280;12.584;2023-12-22T01:31:00;10.67;;;2.03;;
14001;SDS011;7076;51.280;12.584;2023-12-22T01:36:02;8.70;;;1.63;;
14001;SDS011;7076;51.280;12.584;2023-12-22T01:41:07;6.00;;;1.53;;
14001;SDS011;7076;51.280;12.584;2023-12-22T01:46:10;9.57;;;1.60;;
14001;SDS011;7076;51.280;12.584;2023-12-22T01:51:12;17.57;;;2.63;;
14001;SDS011;7076;51.280;12.584;2023-12-22T01:56:16;12.10;;;2.50;;
14001;SDS011;7076;51.280;12.584;2023-12-22T02:01:19;12.30;;;2.20;;
14001;SDS011;7076;51.280;12.584;2023-12-22T02:06:22;13.27;;;2.00;;
14001;SDS011;7076;51.280;12.584;2023-12-22T02:11:26;10.07;;;2.10;;
14001;SDS011;7076;51.280;12.584;2023-12-22T02:16:31;14.00;;;2.17;;
14001;SDS011;7076;51.280;12.584;2023-12-22T02:21:35;12.43;;;2.37;;
14001;SDS011;7076;51.280;12.584;2023-12-22T02:26:41;10.20;;;1.67;;
14001;SDS011;7076;51.280;12.584;2023-12-22T02:31:45;11.97;;;2.30;;
14001;SDS011;7076;51.280;12.584;2023-12-22T02:36:52;14.23;;;2.20;;
14001;SDS011;7076;51.280;12.584;2023-12-22T02:41:57;12.90;;;2.67;;
14001;SDS011;7076;51.280;12.584;2023-12-22T02:47:01;11.40;;;2.10;;
14001;SDS011;7076;51.280;12.584;2023-12-22T02:52:04;15.33;;;1.93;;
14001;SDS011;7076;51.280;12.584;2023-12-22T02:57:08;8.50;;;2.17;;
14001;SDS011;7076;51.280;12.584;2023-12-22T03:02:11;5.93;;;1.33;;
14001;SDS011;7076;51.280;12.584;2023-12-22T03:07:13;11.80;;;1.83;;
14001;SDS011;7076;51.280;12.584;2023-12-22T03:12:17;4.97;;;1.30;;
14001;SDS011;7076;51.280;12.584;2023-12-22T03:17:20;8.47;;;1.50;;
14001;SDS011;7076;51.280;12.584;2023-12-22T03:22:23;5.73;;;1.50;;
14001;SDS011;7076;51.280;12.584;2023-12-22T03:27:27;9.33;;;1.40;;
14001;SDS011;7076;51.280;12.584;2023-12-22T03:32:29;9.50;;;1.57;;
14001;SDS011;7076;51.280;12.584;2023-12-22T03:37:32;10.07;;;1.70;;
14001;SDS011;7076;51.280;12.584;2023-12-22T03:42:36;10.50;;;1.50;;
14001;SDS011;7076;51.280;12.584;2023-12-22T03:47:39;8.50;;;1.27;;
14001;SDS011;7076;51.280;12.584;2023-12-22T03:52:41;3.80;;;1.00;;
14001;SDS011;7076;51.280;12.584;2023-12-22T03:57:45;3.77;;;1.20;;
14001;SDS011;7076;51.280;12.584;2023-12-22T04:02:48;9.20;;;1.50;;
14001;SDS011;7076;51.280;12.584;2023-12-22T04:07:51;6.60;;;1.63;;
14001;SDS011;7076;51.280;12.584;2023-12-22T04:12:55;14.03;;;1.77;;
14001;SDS011;7076;51.280;12.584;2023-12-22T04:17:57;4.20;;;0.80;;
14001;SDS011;7076;51.280;12.584;2023-12-22T04:23:00;4.77;;;0.90;;
14001;SDS011;7076;51.280;12.584;2023-12-22T04:28:04;4.63;;;0.70;;
14001;SDS011;7076;51.280;12.584;2023-12-22T04:33:07;5.03;;;0.90;;
14001;SDS011;7076;51.280;12.584;2023-12-22T04:38:10;4.67;;;0.90;;
14001;SDS011;7076;51.280;12.584;2023-12-22T04:43:13;5.93;;;1.00;;
14001;SDS011;7076;51.280;12.584;2023-12-22T04:48:16;1.17;;;0.60;;
14001;SDS011;7076;51.280;12.584;2023-12-22T04:53:19;1.23;;;0.70;;
14001;SDS011;7076;51.280;12.584;2023-12-22T04:58:23;4.10;;;0.80;;
14001;SDS011;7076;51.280;12.584;2023-12-22T05:03:26;5.47;;;1.20;;
14001;SDS011;7076;51.280;12.584;2023-12-22T05:08:29;2.63;;;0.70;;
14001;SDS011;7076;51.280;12.584;2023-12-22T05:13:33;1.73;;;0.70;;
14001;SDS011;7076;51.280;12.584;2023-12-22T05:18:36;8.33;;;1.10;;
14001;SDS011;7076;51.280;12.584;2023-12-22T05:23:38;5.30;;;1.10;;
14001;SDS011;7076;51.280;12.584;2023-12-22T05:28:42;4.67;;;0.87;;
14001;SDS011;7076;51.280;12.584;2023-12-22T05:33:45;6.50;;;1.20;;
14001;SDS011;7076;51.280;12.584;2023-12-22T05:38:48;2.87;;;1.00;;
14001;SDS011;7076;51.280;12.584;2023-12-22T05:43:52;4.47;;;0.90;;
14001;SDS011;7076;51.280;12.584;2023-12-22T05:48:54;7.77;;;1.30;;
14001;SDS011;7076;51.280;12.584;2023-12-22T05:54:00;5.70;;;1.00;;
14001;SDS011;7076;51.280;12.584;2023-12-22T05:59:04;5.50;;;1.50;;
14001;SDS011;7076;51.280;12.584;2023-12-22T06:04:07;2.87;;;0.90;;
14001;SDS011;7076;51.280;12.584;2023-12-22T06:09:10;4.97;;;1.10;;
14001;SDS011;7076;51.280;12.584;2023-12-22T06:14:15;3.23;;;1.03;;
14001;SDS011;7076;51.280;12.584;2023-12-22T06:19:17;5.67;;;0.83;;
14001;SDS011;7076;51.280;12.584;2023-12-22T06:24:20;10.80;;;1.80;;
14001;SDS011;7076;51.280;12.584;2023-12-22T06:29:24;5.47;;;1.10;;
14001;SDS011;7076;51.280;12.584;2023-12-22T06:34:31;2.20;;;0.90;;
14001;SDS011;7076;51.280;12.584;2023-12-22T06:39:33;3.33;;;1.20;;
14001;SDS011;7076;51.280;12.584;2023-12-22T06:44:37;3.17;;;1.20;;
14001;SDS011;7076;51.280;12.584;2023-12-22T06:49:41;4.20;;;0.97;;
14001;SDS011;7076;51.280;12.584;2023-12-22T06:54:44;4.53;;;1.00;;
14001;SDS011;7076;51.280;12.584;2023-12-22T06:59:48;5.13;;;1.20;;
14001;SDS011;7076;51.280;12.584;2023-12-22T07:10:22;6.43;;;1.23;;
14001;SDS011;7076;51.280;12.584;2023-12-22T07:15:26;3.80;;;0.90;;
14001;SDS011;7076;51.280;12.584;2023-12-22T07:20:29;4.13;;;1.13;;
14001;SDS011;7076;51.280;12.584;2023-12-22T07:25:35;8.50;;;1.43;;
14001;SDS011;7076;51.280;12.584;2023-12-22T07:30:39;10.23;;;1.10;;
14001;SDS011;7076;51.280;12.584;2023-12-22T07:35:41;7.63;;;1.43;;
14001;SDS011;7076;51.280;12.584;2023-12-22T07:40:46;7.43;;;1.53;;
14001;SDS011;7076;51.280;12.584;2023-12-22T07:45:50;4.03;;;0.93;;
14001;SDS011;7076;51.280;12.584;2023-12-22T07:50:54;2.07;;;0.70;;
14001;SDS011;7076;51.280;12.584;2023-12-22T07:55:57;2.50;;;1.10;;
14001;SDS011;7076;51.280;12.584;2023-12-22T08:01:02;3.30;;;1.27;;
14001;SDS011;7076;51.280;12.584;2023-12-22T08:06:05;4.90;;;1.73;;
14001;SDS011;7076;51.280;12.584;2023-12-22T08:11:12;6.17;;;1.30;;
14001;SDS011;7076;51.280;12.584;2023-12-22T08:16:16;3.53;;;1.23;;
14001;SDS011;7076;51.280;12.584;2023-12-22T08:21:19;3.93;;;0.87;;
14001;SDS011;7076;51.280;12.584;2023-12-22T08:26:38;1.27;;;0.77;;
14001;SDS011;7076;51.280;12.584;2023-12-22T08:31:43;3.37;;;0.73;;
14001;SDS011;7076;51.280;12.584;2023-12-22T08:36:45;2.57;;;0.83;;
14001;SDS011;7076;51.280;12.584;2023-12-22T08:41:48;1.70;;;0.70;;
14001;SDS011;7076;51.280;12.584;2023-12-22T08:46:52;3.03;;;0.93;;
14001;SDS011;7076;51.280;12.584;2023-12-22T08:51:55;2.70;;;0.90;;
14001;SDS011;7076;51.280;12.584;2023-12-22T08:56:58;3.00;;;1.00;;
14001;SDS011;7076;51.280;12.584;2023-12-22T09:02:02;0.70;;;0.70;;
14001;SDS011;7076;51.280;12.584;2023-12-22T09:07:04;0.70;;;0.47;;
14001;SDS011;7076;51.280;12.584;2023-12-22T09:12:07;1.17;;;0.70;;
14001;SDS011;7076;51.280;12.584;2023-12-22T09:17:11;2.50;;;1.03;;
14001;SDS011;7076;51.280;12.584;2023-12-22T09:22:14;4.00;;;0.87;;
14001;SDS011;7076;51.280;12.584;2023-12-22T09:27:17;1.63;;;0.50;;
14001;SDS011;7076;51.280;12.584;2023-12-22T09:32:21;1.27;;;0.70;;
14001;SDS011;7076;51.280;12.584;2023-12-22T09:37:23;3.47;;;0.50;;
14001;SDS011;7076;51.280;12.584;2023-12-22T09:42:26;2.27;;;0.60;;
14001;SDS011;7076;51.280;12.584;2023-12-22T09:47:30;2.80;;;0.53;;
14001;SDS011;7076;51.280;12.584;2023-12-22T09:52:33;2.13;;;0.70;;
14001;SDS011;7076;51.280;12.584;2023-12-22T09:57:37;2.00;;;0.40;;
14001;SDS011;7076;51.280;12.584;2023-12-22T10:02:42;1.30;;;0.53;;
14001;SDS011;7076;51.280;12.584;2023-12-22T10:07:47;0.57;;;0.57;;
14001;SDS011;7076;51.280;12.584;2023-12-22T10:12:50;1.80;;;0.30;;
14001;SDS011;7076;51.280;12.584;2023-12-22T10:17:55;0.20;;;0.20;;
14001;SDS011;7076;51.280;12.584;2023-12-22T10:22:58;0.57;;;0.37;;
14001;SDS011;7076;51.280;12.584;2023-12-22T10:28:01;0.50;;;0.40;;
14001;SDS011;7076;51.280;12.584;2023-12-22T10:33:05;1.03;;;0.47;;
14001;SDS011;7076;51.280;12.584;2023-12-22T10:38:09;0.37;;;0.37;;
14001;SDS011;7076;51.280;12.584;2023-12-22T10:43:11;1.40;;;0.60;;
14001;SDS011;7076;51.280;12.584;2023-12-22T10:48:16;0.93;;;0.63;;
14001;SDS011;7076;51.280;12.584;2023-12-22T10:53:20;1.53;;;0.80;;
14001;SDS011;7076;51.280;12.584;2023-12-22T11:03:54;4.93;;;0.90;;
14001;SDS011;7076;51.280;12.584;2023-12-22T11:09:00;1.07;;;0.70;;
14001;SDS011;7076;51.280;12.584;2023-12-22T11:14:06;3.17;;;1.13;;
14001;SDS011;7076;51.280;12.584;2023-12-22T11:19:12;3.13;;;0.77;;
14001;SDS011;7076;51.280;12.584;2023-12-22T11:24:16;4.87;;;1.00;;
14001;SDS011;7076;51.280;12.584;2023-12-22T11:29:20;7.67;;;1.33;;
14001;SDS011;7076;51.280;12.584;2023-12-22T11:34:27;8.43;;;1.27;;
14001;SDS011;7076;51.280;12.584;2023-12-22T11:39:31;9.57;;;1.27;;
14001;SDS011;7076;51.280;12.584;2023-12-22T11:44:34;3.80;;;1.10;;
14001;SDS011;7076;51.280;12.584;2023-12-22T11:49:38;5.57;;;1.17;;
14001;SDS011;7076;51.280;12.584;2023-12-22T11:54:44;1.40;;;0.53;;
14001;SDS011;7076;51.280;12.584;2023-12-22T11:59:49;2.00;;;0.50;;
14001;SDS011;7076;51.280;12.584;2023-12-22T12:04:53;1.23;;;0.67;;
14001;SDS011;7076;51.280;12.584;2023-12-22T12:09:56;3.03;;;0.50;;
14001;SDS011;7076;51.280;12.584;2023-12-22T12:15:07;3.13;;;0.77;;
14001;SDS011;7076;51.280;12.584;2023-12-22T12:20:12;3.53;;;0.80;;
14001;SDS011;7076;51.280;12.584;2023-12-22T12:25:15;6.33;;;1.00;;
14001;SDS011;7076;51.280;12.584;2023-12-22T12:30:29;2.13;;;0.90;;
14001;SDS011;7076;51.280;12.584;2023-12-22T12:35:34;1.90;;;0.70;;
14001;SDS011;7076;51.280;12.584;2023-12-22T12:40:43;0.30;;;0.30;;
14001;SDS011;7076;51.280;12.584;2023-12-22T12:45:48;0.63;;;0.40;;
14001;SDS011;7076;51.280;12.584;2023-12-22T12:50:52;0.40;;;0.40;;
14001;SDS011;7076;51.280;12.584;2023-12-22T12:55:55;2.03;;;0.40;;
14001;SDS011;7076;51.280;12.584;2023-12-22T13:01:07;1.27;;;0.60;;
14001;SDS011;7076;51.280;12.584;2023-12-22T13:06:15;0.57;;;0.50;;
14001;SDS011;7076;51.280;12.584;2023-12-22T13:11:20;0.67;;;0.50;;
14001;SDS011;7076;51.280;12.584;2023-12-22T13:16:24;0.57;;;0.57;;
14001;SDS011;7076;51.280;12.584;2023-12-22T13:21:29;0.67;;;0.53;;
14001;SDS011;7076;51.280;12.584;2023-12-22T13:26:32;2.40;;;0.80;;
14001;SDS011;7076;51.280;12.584;2023-12-22T13:31:36;2.50;;;1.00;;
14001;SDS011;7076;51.280;12.584;2023-12-22T13:36:41;1.10;;;0.67;;
14001;SDS011;7076;51.280;12.584;2023-12-22T13:41:44;2.67;;;0.83;;
14001;SDS011;7076;51.280;12.584;2023-12-22T13:46:48;1.33;;;0.70;;
14001;SDS011;7076;51.280;12.584;2023-12-22T13:51:52;2.27;;;0.70;;
14001;SDS011;7076;51.280;12.584;2023-12-22T13:56:55;1.20;;;0.70;;
14001;SDS011;7076;51.280;12.584;2023-12-22T14:01:58;4.93;;;0.80;;
14001;SDS011;7076;51.280;12.584;2023-12-22T14:07:02;1.23;;;0.63;;
14001;SDS011;7076;51.280;12.584;2023-12-22T14:12:06;1.60;;;0.80;;
14001;SDS011;7076;51.280;12.584;2023-12-22T14:17:16;6.17;;;3.00;;
14001;SDS011;7076;51.280;12.584;2023-12-22T14:22:22;1.40;;;1.30;;
14001;SDS011;7076;51.280;12.584;2023-12-22T14:27:26;2.57;;;1.13;;
14001;SDS011;7076;51.280;12.584;2023-12-22T14:32:28;1.30;;;0.90;;
14001;SDS011;7076;51.280;12.584;2023-12-22T14:37:33;3.07;;;1.20;;
14001;SDS011;7076;51.280;12.584;2023-12-22T14:42:37;4.07;;;1.13;;
14001;SDS011;7076;51.280;12.584;2023-12-22T14:47:40;4.80;;;1.10;;
14001;SDS011;7076;51.280;12.584;2023-12-22T14:52:44;1.20;;;1.03;;
14001;SDS011;7076;51.280;12.584;2023-12-22T14:57:47;3.43;;;1.20;;
14001;SDS011;7076;51.280;12.584;2023-12-22T15:02:50;3.53;;;1.33;;
14001;SDS011;7076;51.280;12.584;2023-12-22T15:07:55;3.03;;;1.43;;
14001;SDS011;7076;51.280;12.584;2023-12-22T15:12:59;2.90;;;0.97;;
14001;SDS011;7076;51.280;12.584;2023-12-22T15:18:05;3.70;;;1.70;;
14001;SDS011;7076;51.280;12.584;2023-12-22T15:23:15;5.67;;;1.40;;
14001;SDS011;7076;51.280;12.584;2023-12-22T15:28:18;4.70;;;1.17;;
14001;SDS011;7076;51.280;12.584;2023-12-22T15:33:20;3.43;;;1.40;;
14001;SDS011;7076;51.280;12.584;2023-12-22T15:38:25;5.33;;;1.00;;
14001;SDS011;7076;51.280;12.584;2023-12-22T15:43:29;4.73;;;1.33;;
14001;SDS011;7076;51.280;12.584;2023-12-22T15:48:37;5.43;;;1.50;;
14001;SDS011;7076;51.280;12.584;2023-12-22T15:53:41;3.87;;;0.77;;
14001;SDS011;7076;51.280;12.584;2023-12-22T15:58:44;2.43;;;0.93;;
14001;SDS011;7076;51.280;12.584;2023-12-22T16:03:47;3.13;;;0.80;;
14001;SDS011;7076;51.280;12.584;2023-12-22T16:08:54;2.13;;;0.90;;
14001;SDS011;7076;51.280;12.584;2023-12-22T16:13:56;1.27;;;0.63;;
14001;SDS011;7076;51.280;12.584;2023-12-22T16:18:59;2.00;;;1.30;;
14001;SDS011;7076;51.280;12.584;2023-12-22T16:24:04;1.97;;;0.60;;
14001;SDS011;7076;51.280;12.584;2023-12-22T16:29:07;2.93;;;0.90;;
14001;SDS011;7076;51.280;12.584;2023-12-22T16:34:10;2.03;;;1.03;;
14001;SDS011;7076;51.280;12.584;2023-12-22T16:39:14;2.00;;;0.80;;
14001;SDS011;7076;51.280;12.584;2023-12-22T16:44:18;5.97;;;0.70;;
14001;SDS011;7076;51.280;12.584;2023-12-22T16:49:23;3.80;;;1.07;;
14001;SDS011;7076;51.280;12.584;2023-12-22T16:54:27;2.73;;;0.97;;
14001;SDS011;7076;51.280;12.584;2023-12-22T16:59:30;1.23;;;0.63;;
14001;SDS011;7076;51.280;12.584;2023-12-22T17:04:33;1.03;;;0.80;;
14001;SDS011;7076;51.280;12.584;2023-12-22T17:09:38;3.97;;;1.87;;
14001;SDS011;7076;51.280;12.584;2023-12-22T17:14:41;0.93;;;0.60;;
14001;SDS011;7076;51.280;12.584;2023-12-22T17:19:44;0.40;;;0.40;;
14001;SDS011;7076;51.280;12.584;2023-12-22T17:24:48;0.40;;;0.40;;
14001;SDS011;7076;51.280;12.584;2023-12-22T17:29:51;0.50;;;0.50;;
14001;SDS011;7076;51.280;12.584;2023-12-22T17:34:54;0.70;;;0.70;;
14001;SDS011;7076;51.280;12.584;2023-12-22T17:39:58;0.50;;;0.50;;
14001;SDS011;7076;51.280;12.584;2023-12-22T17:45:01;1.13;;;0.53;;
14001;SDS011;7076;51.280;12.584;2023-12-22T17:50:05;0.73;;;0.67;;
14001;SDS011;7076;51.280;12.584;2023-12-22T17:55:10;0.77;;;0.77;;
14001;SDS011;7076;51.280;12.584;2023-12-22T18:00:13;0.60;;;0.60;;
14001;SDS011;7076;51.280;12.584;2023-12-22T18:05:17;0.53;;;0.53;;
14001;SDS011;7076;51.280;12.584;2023-12-22T18:10:22;0.50;;;0.50;;
14001;SDS011;7076;51.280;12.584;2023-12-22T18:15:25;0.63;;;0.63;;
14001;SDS011;7076;51.280;12.584;2023-12-22T18:20:27;0.63;;;0.60;;
14001;SDS011;7076;51.280;12.584;2023-12-22T18:25:32;0.70;;;0.70;;
14001;SDS011;7076;51.280;12.584;2023-12-22T18:30:35;0.83;;;0.73;;
14001;SDS011;7076;51.280;12.584;2023-12-22T18:35:38;0.60;;;0.60;;
14001;SDS011;7076;51.280;12.584;2023-12-22T18:40:42;0.60;;;0.60;;
14001;SDS011;7076;51.280;12.584;2023-12-22T18:45:45;0.60;;;0.60;;
14001;SDS011;7076;51.280;12.584;2023-12-22T18:50:48;0.80;;;0.80;;
14001;SDS011;7076;51.280;12.584;2023-12-22T18:55:55;0.50;;;0.50;;
14001;SDS011;7076;51.280;12.584;2023-12-22T19:00:59;0.60;;;0.60;;
14001;SDS011;7076;51.280;12.584;2023-12-22T19:06:02;0.40;;;0.40;;
14001;SDS011;7076;51.280;12.584;2023-12-22T19:11:07;0.40;;;0.40;;
14001;SDS011;7076;51.280;12.584;2023-12-22T19:16:14;0.47;;;0.47;;
14001;SDS011;7076;51.280;12.584;2023-12-22T19:21:17;0.50;;;0.50;;
14001;SDS011;7076;51.280;12.584;2023-12-22T19:26:21;1.23;;;0.73;;
14001;SDS011;7076;51.280;12.584;2023-12-22T19:31:24;0.97;;;0.73;;
14001;SDS011;7076;51.280;12.584;2023-12-22T19:36:31;0.43;;;0.43;;
14001;SDS011;7076;51.280;12.584;2023-12-22T19:41:35;0.50;;;0.50;;
14001;SDS011;7076;51.280;12.584;2023-12-22T19:46:38;0.50;;;0.50;;
14001;SDS011;7076;51.280;12.584;2023-12-22T19:51:41;0.50;;;0.50;;
14001;SDS011;7076;51.280;12.584;2023-12-22T19:56:46;0.50;;;0.50;;
14001;SDS011;7076;51.280;12.584;2023-12-22T20:01:48;0.73;;;0.70;;
14001;SDS011;7076;51.280;12.584;2023-12-22T20:06:51;0.60;;;0.60;;
14001;SDS011;7076;51.280;12.584;2023-12-22T20:11:56;0.63;;;0.63;;
14001;SDS011;7076;51.280;12.584;2023-12-22T20:16:59;0.57;;;0.57;;
14001;SDS011;7076;51.280;12.584;2023-12-22T20:22:02;0.60;;;0.60;;
14001;SDS011;7076;51.280;12.584;2023-12-22T20:27:07;0.50;;;0.50;;
14001;SDS011;7076;51.280;12.584;2023-12-22T20:32:10;1.97;;;0.80;;
14001;SDS011;7076;51.280;12.584;2023-12-22T20:37:13;0.60;;;0.60;;
14001;SDS011;7076;51.280;12.584;2023-12-22T20:42:17;0.70;;;0.67;;
14001;SDS011;7076;51.280;12.584;2023-12-22T20:47:20;0.60;;;0.60;;
14001;SDS011;7076;51.280;12.584;2023-12-22T20:52:23;0.60;;;0.60;;
14001;SDS011;7076;51.280;12.584;2023-12-22T20:57:27;0.60;;;0.60;;
14001;SDS011;7076;51.280;12.584;2023-12-22T21:02:30;1.10;;;0.70;;
14001;SDS011;7076;51.280;12.584;2023-12-22T21:07:34;0.67;;;0.67;;
14001;SDS011;7076;51.280;12.584;2023-12-22T21:12:38;0.47;;;0.47;;
14001;SDS011;7076;51.280;12.584;2023-12-22T21:17:41;0.50;;;0.50;;
14001;SDS011;7076;51.280;12.584;2023-12-22T21:22:48;0.87;;;0.70;;
14001;SDS011;7076;51.280;12.584;2023-12-22T21:27:52;0.60;;;0.60;;
14001;SDS011;7076;51.280;12.584;2023-12-22T21:32:55;0.80;;;0.60;;
14001;SDS011;7076;51.280;12.584;2023-12-22T21:37:58;0.60;;;0.60;;
14001;SDS011;7076;51.280;12.584;2023-12-22T21:43:04;1.07;;;0.60;;
14001;SDS011;7076;51.280;12.584;2023-12-22T21:48:07;0.70;;;0.70;;
14001;SDS011;7076;51.280;12.584;2023-12-22T21:53:11;0.57;;;0.57;;
14001;SDS011;7076;51.280;12.584;2023-12-22T21:58:16;0.60;;;0.60;;
14001;SDS011;7076;51.280;12.584;2023-12-22T22:03:19;0.57;;;0.40;;
14001;SDS011;7076;51.280;12.584;2023-12-22T22:08:23;0.40;;;0.40;;
14001;SDS011;7076;51.280;12.584;2023-12-22T22:13:27;0.30;;;0.30;;
14001;SDS011;7076;51.280;12.584;2023-12-22T22:18:30;0.50;;;0.50;;
14001;SDS011;7076;51.280;12.584;2023-12-22T22:23:33;1.83;;;0.50;;
14001;SDS011;7076;51.280;12.584;2023-12-22T22:28:37;0.53;;;0.53;;
14001;SDS011;7076;51.280;12.584;2023-12-22T22:33:40;0.50;;;0.50;;
14001;SDS011;7076;51.280;12.584;2023-12-22T22:38:48;0.40;;;0.40;;
14001;SDS011;7076;51.280;12.584;2023-12-22T22:43:53;0.40;;;0.40;;
14001;SDS011;7076;51.280;12.584;2023-12-22T22:48:56;0.30;;;0.30;;
14001;SDS011;7076;51.280;12.584;2023-12-22T22:54:00;0.53;;;0.50;;
14001;SDS011;7076;51.280;12.584;2023-12-22T22:59:05;0.50;;;0.50;;
14001;SDS011;7076;51.280;12.584;2023-12-22T23:04:09;0.40;;;0.40;;
14001;SDS011;7076;51.280;12.584;2023-12-22T23:09:14;0.40;;;0.40;;
14001;SDS011;7076;51.280;12.584;2023-12-22T23:14:19;0.43;;;0.43;;
14001;SDS011;7076;51.280;12.584;2023-12-22T23:19:23;0.40;;;0.40;;
14001;SDS011;7076;51.280;12.584;2023-12-22T23:24:26;0.50;;;0.50;;
14001;SDS011;7076;51.280;12.584;2023-12-22T23:29:30;0.50;;;0.50;;
14001;SDS011;7076;51.280;12.584;2023-12-22T23:34:33;0.80;;;0.50;;
14001;SDS011;7076;51.280;12.584;2023-12-22T23:39:36;1.03;;;0.57;;
14001;SDS011;7076;51.280;12.584;2023-12-22T23:44:40;0.40;;;0.40;;
14001;SDS011;7076;51.280;12.584;2023-12-22T23:49:44;1.07;;;0.60;;
14001;SDS011;7076;51.280;12.584;2023-12-22T23:54:47;0.40;;;0.40;;
14001;SDS011;7076;51.280;12.584;2023-12-22T23:59:51;0.90;;;0.40;;
